Logo AVAMET
Benvolgut visitant, si us plau, ingressa Recuperar contrasenya
AVAMET paisatges

Inforatge Rocafort

Dades diàries. Acumulats / Últims 30 dies disponibles

Data Temperatura (°C) Humitat rel. (%) Pressió rel. (hPa) Vent (km/h) Precipitació
Mínima Mitjana Màxima Amplitud
tèrmica
Mínima Mitjana Màxima Mínima Mitjana Màxima Predom. Mitjana Ràfega
màxima
Total
(mm)
Índex-n
Mínima Mitjana Màxima Mínima Mitjana Màxima n
0 a 1
P0 max
mm 5'
Dades mensuals acumulades fins l'últim dia disponible
07/2020 21,6 22,4 23,2 26,5 30,2 31,1 31,9 10,3 55 75 90 1.009 1.012 1.015   5,3 25,7 0,0
Dades anuals acumulades fins l'últim dia disponible
2020 2,7 12,4 23,2 16,6 9,4 21,6 32,8 30,1 26 77 100 1.000 1.018 1.035   5,3 93,3 266,0
Últims 30 dies disponibles
02-07-2020 23,2     26,6     30,2 7,0 61 77 90 1.011 1.013 1.015 ENE 5,3 25,7 0,0
01-07-2020 21,6     26,4     31,9 10,3 55 73 88 1.009 1.011 1.013 ENE 5,3 25,7 0,0
30-06-2020 21,9     25,6     29,7 7,8 61 76 87 1.012 1.014 1.016 SSE 4,4 24,1 0,0
29-06-2020 21,5     25,6     29,3 7,8 62 77 89 1.014 1.016 1.017 ENE 4,5 22,5 0,0
28-06-2020 21,1     25,1     29,1 8,0 59 77 87 1.016 1.017 1.018 ENE 4,5 24,1 0,0
27-06-2020 21,6     25,7     31,4 9,8 39 67 86 1.014 1.015 1.017 ENE 4,5 29,0 0,0
26-06-2020 20,9     25,6     30,3 9,4 46 61 78 1.012 1.015 1.016 ENE 4,3 20,9 0,0
25-06-2020 20,3     25,5     30,2 9,9 42 62 79 1.014 1.016 1.018 ENE 4,3 22,5 0,0
24-06-2020 19,7     24,4     29,3 9,6 48 67 79 1.014 1.017 1.018 ENE 3,5 29,0 0,0
23-06-2020 21,8     24,8     29,9 8,1 47 71 81 1.016 1.018 1.020 ENE 5,0 24,1 0,0
22-06-2020 20,5     25,2     29,7 9,2 51 71 87 1.018 1.020 1.022 ENE 4,3 22,5 0,0
21-06-2020 19,7     23,9     27,7 8,0 66 78 90 1.019 1.021 1.022 ENE 3,1 19,3 0,0
20-06-2020 19,7     23,7     27,2 7,5 63 76 88 1.019 1.020 1.021 ENE 4,3 25,7 0,0
19-06-2020 19,7     22,6     27,1 7,4 65 78 87 1.017 1.018 1.021 ENE 4,8 24,1 0,0
18-06-2020 20,5     22,4     25,4 4,9 60 71 86 1.013 1.014 1.017 ENE 5,3 27,4 0,0
17-06-2020 18,6     21,8     25,6 7,0 57 72 82 1.014 1.015 1.017 ENE 6,1 30,6 0,0
16-06-2020 19,4     21,9     25,7 6,3 65 87 100 1.016 1.017 1.018 ENE 5,6 40,2 0,0
15-06-2020 17,4     22,3     26,7 9,3 66 91 100 1.018 1.018 1.020 E 4,8 27,4 0,0
14-06-2020 17,8     22,8     27,7 9,9 63 82 99 1.015 1.017 1.018 ENE 4,5 24,1 0,0
13-06-2020 17,8     23,7     30,2 12,4 48 65 92 1.008 1.012 1.016 W 10,1 38,6 0,0
12-06-2020 20,7     24,2     27,7 7,0 48 60 76 1.003 1.005 1.008 W 15,8 51,5 0,0
11-06-2020 17,6     24,8     32,1 14,5 48 75 100 1.000 1.006 1.014 W 9,7 46,7 0,0
10-06-2020 15,7     20,3     25,4 9,7 73 88 100 1.013 1.014 1.017 NW 6,3 25,7 0,0
09-06-2020 16,1     19,7     24,2 8,1 71 89 100 1.016 1.016 1.017 E 5,5 25,7 0,0
08-06-2020 15,2     17,9     22,0 6,8 42 81 100 1.011 1.013 1.016 NW 2,1 20,9 21,4 0,60 2,70
07-06-2020 17,6     22,1     27,8 10,2 44 86 100 1.004 1.007 1.012 ENE 6,9 37,0 1,6
06-06-2020 17,7     23,6     30,3 12,6 59 86 100 1.004 1.008 1.012 E 4,8 25,7 0,0
05-06-2020 14,9     21,3     29,7 14,8 51 82 100 1.009 1.010 1.011 NW 5,0 25,7 0,0
04-06-2020 17,7     21,1     25,9 8,2 68 92 100 1.002 1.004 1.009 W 6,1 43,5 1,4
03-06-2020 18,2     23,5     29,8 11,6 66 89 100 1.002 1.008 1.014 E 4,2 37,0 0,0
Últims 13 mesos disponibles
06/2020 14,9 18,9 21,9 23,2 22,0 28,0 32,1 17,2 60 78 92 1.004 1.014 1.021 ENE 5,4 51,5 24,4
05/2020 12,5 16,5 19,5 21,0 19,5 25,9 32,8 20,3 68 86 97 1.005 1.017 1.027 E 5,4 57,9 30,4
04/2020 8,5 12,4 18,4 15,9 15,2 20,3 26,6 18,1 43 79 98 1.005 1.016 1.026 E 4,5 56,3 43,6
03/2020 6,2 10,3 15,8 14,0 11,6 18,3 25,6 19,4 33 74 97 1.008 1.017 1.027 ENE 7,5 93,3 56,8
02/2020 5,6 9,3 13,7 14,1 14,3 20,6 26,7 21,1 41 71 85 1.013 1.025 1.033 W 3,6 56,3 1,2
01/2020 2,7 6,7 14,4 10,7 9,4 16,0 22,3 19,6 32 75 93 1.017 1.023 1.032 W 5,4 74,0 109,6
12/2019 6,6 10,6 17,1 14,2 12,6 18,5 24,4 17,8 27 68 90 1.007 1.019 1.028 W 7,5 96,6 63,8
11/2019 5,6 11,7 20,6 15,6 15,8 19,9 29,1 23,5 45 56 65 998 1.010 1.018 W 10,2 75,6 2,2
10/2019 11,4 15,7 20,5 20,0 16,2 25,5 34,8 23,4 20 51 76 1.007 1.016 1.022 WNW 4,3 43,5 20,8
09/2019 15,6 20,0 23,2 23,6 20,9 27,9 34,4 18,8 43 72 84 1.010 1.017 1.024 SSE 4,9 55,6 77,0
08/2019 17,3 22,3 25,7 26,4 27,2 31,0 41,4 24,1 21 70 79 1.010 1.015 1.020 SSE 4,6 63,0 7,8
07/2019 20,5 22,4 24,1 26,6 27,8 31,2 38,3 17,8 51 66 79 1.005 1.014 1.021 SE 4,9 53,7 12,6
06/2019 12,9 17,8 21,4 22,5 21,8 27,2 36,5 23,6 40 64 81 1.008 1.015 1.022 SE 4,7 64,8 0,0
Tots els anys disponibles
2019 2,6 14,2 25,7 18,5 12,1 23,4 41,4 38,8 20 63 96 994 1.017 1.034 SSE 5,6 96,6 281,0
2018 2,7 14,7 24,9 18,6 6,3 23,0 37,1 34,4 33 67 96 993 1.015 1.035 SE 5,5 80,6 524,2
2017 1,6 14,5 25,8 18,5 9,3 23,1 37,2 35,6 28 66 92 997 1.018 1.036 SSE 2,6 84,0 269,0
2016 2,1 14,7 25,4 18,9 11,2 23,1 36,2 34,1 32 64 90 995 1.018 1.036 87,0 280,6
2015 1,0 14,6 20,8 19,1 22,6 23,5 41,9 40,9 55 64 74 1.015 1.019 1.030 91,0 230,0
Temperatura (°C)
Humitat relativa (%)
Velocitat del vent i ràfega màxima (km/h)
Direcció del vent (°)
Pressió (hPa)
Precipitació (mm)
Nota sobre les dades: s'avisa a l'usuari de la provisionalitat i no oficialitat d'aquestes dades
Logo AVAMET blanc
Web allotjada a Sollutia
Llicència de Creative CommonsLa web d'AVAMET i els seus continguts estan subjectes a una llicència de
Reconeixement - No Comercial - Compartir igual
Últimes estacions: la Vilavella - Ptda Forns (Soci), Miramar - Platja (Inforatge), San Fulgencio - Centre & San Fulgencio - Urb. La Marina (MeteOrihuela), Ontinyent - els Gínjols (Soci), Orba (Ajuntament Soci), Xixona - Monnegre de Baix (Soci), Benifairó de la Valldigna - Cambro/Pator (Soci) - - -